KBYI/BYI METAR and TAF weather

Enter ICAO airport designator
Station Type Date Time Source
KBYI METAR 2021/08/05 03:53 UTC NOAA

KBYI 050353Z AUTO 09003KT 10SM CLR 25/11 A3004 RMK AO2 SLP125 T02500111


Station Type Date Time Source
KBYI Decoded METAR 2021/08/05 03:53 UTC NOAA

BURLEY MUNICIPAL AIRPORT, ID, United States (KBYI) 42-33N 113-46W 1264M
Aug 04, 2021 - 11:53 PM EDT / 2021.08.05 0353 UTC
Wind: from the E (090 degrees) at 3 MPH (3 KT):0
Visibility: 10 mile(s):0
Sky conditions: clear
Temperature: 77.0 F (25.0 C)
Dew Point: 52.0 F (11.1 C)
Relative Humidity: 41%
Pressure (altimeter): 30.04 in. Hg (1017 hPa)
ob: KBYI 050353Z AUTO 09003KT 10SM CLR 25/11 A3004 RMK AO2 SLP125 T02500111
cycle: 4

Station Type Date Time Source
KBYI TAF 2021/08/05 01:18 UTC NOAA

TAF
AMD KBYI 050112Z 0501/0524 VRB06KT P6SM VCTS SCT080 BKN120CB
TEMPO 0501/0503 VRB20G40KT 6SM -TSRA BKN080CB
FM050600 VRB06KT P6SM SCT120
FM051400 VRB06KT P6SM VCTS SCT090 BKN120CB

Example: see airport list